createdAt,value
2023-03-28T00:02:03.841Z,17.80
2023-03-28T00:07:05.701Z,10.83
2023-03-28T00:12:09.622Z,13.30
2023-03-28T00:17:13.605Z,15.83
2023-03-28T00:22:17.490Z,11.43
2023-03-28T00:27:19.243Z,11.50
2023-03-28T00:32:23.613Z,6.37
2023-03-28T00:37:27.773Z,15.77
2023-03-28T00:42:30.766Z,13.80
2023-03-28T00:47:37.694Z,11.77
2023-03-28T00:52:49.808Z,13.40
2023-03-28T00:57:54.712Z,19.43
2023-03-28T01:02:58.370Z,20.53
2023-03-28T01:08:29.472Z,16.03
2023-03-28T01:13:35.244Z,18.13
2023-03-28T01:18:41.387Z,12.50
2023-03-28T01:24:12.646Z,14.07
2023-03-28T01:29:24.909Z,22.17
2023-03-28T01:34:43.605Z,12.83
2023-03-28T01:40:22.214Z,13.20
2023-03-28T01:45:39.531Z,9.67
2023-03-28T01:51:01.318Z,7.97
2023-03-28T01:56:18.759Z,15.37
2023-03-28T02:01:24.712Z,12.83
2023-03-28T02:06:28.320Z,13.43
2023-03-28T02:11:33.413Z,14.63
2023-03-28T02:17:01.915Z,10.53
2023-03-28T02:22:44.653Z,11.77
2023-03-28T02:28:25.725Z,17.83
2023-03-28T02:33:52.372Z,15.90
2023-03-28T02:39:00.396Z,13.47
2023-03-28T02:44:13.458Z,12.60
2023-03-28T02:49:50.284Z,15.50
2023-03-28T02:55:17.658Z,16.33
2023-03-28T03:00:36.464Z,22.80
2023-03-28T03:05:38.165Z,20.10
2023-03-28T03:10:45.497Z,21.57
2023-03-28T03:15:47.648Z,21.00
2023-03-28T03:20:57.577Z,24.60
2023-03-28T03:26:02.145Z,18.83
2023-03-28T03:31:11.055Z,19.90
2023-03-28T03:36:31.986Z,16.50
2023-03-28T03:41:39.776Z,20.27
2023-03-28T03:46:41.514Z,24.90
2023-03-28T03:51:45.631Z,20.13
2023-03-28T03:56:53.301Z,22.43
2023-03-28T04:01:57.706Z,19.03
2023-03-28T04:06:59.551Z,17.43
2023-03-28T04:12:02.669Z,18.97
2023-03-28T04:17:06.752Z,18.00
2023-03-28T04:22:12.762Z,18.83
2023-03-28T04:27:20.143Z,18.03
2023-03-28T04:32:26.087Z,17.33
2023-03-28T04:37:41.494Z,21.37
2023-03-28T04:42:45.951Z,18.17
2023-03-28T04:47:53.793Z,16.37
2023-03-28T04:52:57.666Z,15.20
2023-03-28T04:57:59.682Z,20.77
2023-03-28T05:03:05.031Z,12.00
2023-03-28T05:08:20.853Z,18.53
2023-03-28T05:13:23.084Z,20.73
2023-03-28T05:18:39.396Z,17.77
2023-03-28T05:23:51.386Z,17.73
2023-03-28T05:28:58.768Z,22.90
2023-03-28T05:34:02.859Z,16.60
2023-03-28T05:39:15.837Z,19.13
2023-03-28T05:44:18.887Z,23.20
2023-03-28T05:49:49.629Z,19.57
2023-03-28T05:54:52.303Z,17.00
2023-03-28T05:59:55.974Z,13.37
2023-03-28T06:05:00.238Z,14.33
2023-03-28T06:10:04.279Z,20.90
2023-03-28T06:15:08.100Z,14.63
2023-03-28T06:20:16.044Z,15.70
2023-03-28T06:25:21.956Z,18.53
2023-03-28T06:30:26.403Z,19.87
2023-03-28T06:35:28.911Z,15.73
2023-03-28T06:40:31.121Z,20.07
2023-03-28T06:45:39.213Z,18.00
2023-03-28T06:50:50.330Z,25.60
2023-03-28T06:55:54.942Z,28.87
2023-03-28T07:00:59.811Z,17.83
2023-03-28T07:06:06.540Z,15.13
2023-03-28T07:11:08.629Z,21.73
2023-03-28T07:16:13.570Z,21.17
2023-03-28T07:21:19.347Z,14.77
2023-03-28T07:26:22.279Z,17.63
2023-03-28T07:31:26.165Z,15.83
2023-03-28T07:36:28.900Z,19.00
2023-03-28T07:41:37.300Z,17.40
2023-03-28T07:46:40.256Z,16.17
2023-03-28T07:51:42.097Z,20.20
2023-03-28T07:56:49.764Z,19.37
2023-03-28T08:01:59.541Z,15.10
2023-03-28T08:07:04.104Z,12.73
2023-03-28T08:12:11.318Z,17.57
2023-03-28T08:17:14.170Z,15.63
2023-03-28T08:22:17.592Z,18.67
2023-03-28T08:27:28.946Z,14.43
2023-03-28T08:32:39.040Z,16.30
2023-03-28T08:37:40.826Z,11.77
2023-03-28T08:42:51.403Z,17.30
2023-03-28T08:48:08.240Z,22.40
2023-03-28T08:53:23.126Z,13.37
2023-03-28T08:58:26.579Z,13.93
2023-03-28T09:03:31.709Z,10.90
2023-03-28T09:08:47.472Z,14.33
2023-03-28T09:14:20.853Z,9.43
2023-03-28T09:19:44.823Z,11.33
2023-03-28T09:25:20.357Z,15.37
2023-03-28T09:30:36.526Z,8.77
2023-03-28T09:35:40.059Z,11.50
2023-03-28T09:40:46.999Z,13.17
2023-03-28T09:46:03.103Z,16.23
2023-03-28T09:51:07.522Z,10.03
2023-03-28T09:56:26.051Z,8.37
2023-03-28T10:01:42.884Z,11.37
2023-03-28T10:07:32.379Z,12.23
2023-03-28T10:12:49.108Z,12.83
2023-03-28T10:17:53.572Z,9.13
2023-03-28T10:23:04.563Z,11.07
2023-03-28T10:28:15.175Z,11.47
2023-03-28T10:33:23.687Z,11.87
2023-03-28T10:38:49.408Z,8.93
2023-03-28T10:43:54.487Z,7.83
2023-03-28T10:49:21.578Z,12.57
2023-03-28T10:55:03.553Z,7.77
2023-03-28T11:00:28.014Z,13.57
2023-03-28T11:05:42.947Z,14.27
2023-03-28T11:10:53.651Z,11.47
2023-03-28T11:16:30.193Z,15.40
2023-03-28T11:22:28.128Z,13.77
2023-03-28T11:27:39.315Z,5.90
2023-03-28T11:33:01.337Z,10.93
2023-03-28T11:38:23.793Z,9.63
2023-03-28T11:43:35.017Z,11.50
2023-03-28T11:48:43.632Z,8.13
2023-03-28T11:54:24.347Z,6.43
2023-03-28T11:59:49.501Z,9.20
2023-03-28T12:04:58.831Z,9.13
2023-03-28T12:10:27.245Z,10.07
2023-03-28T12:15:51.093Z,8.27
2023-03-28T12:21:07.751Z,6.00
2023-03-28T12:26:47.389Z,10.90
2023-03-28T12:31:57.403Z,8.70
2023-03-28T12:37:19.033Z,7.13
2023-03-28T12:42:23.465Z,8.70
2023-03-28T12:47:38.927Z,10.03
2023-03-28T12:52:43.864Z,12.37
2023-03-28T12:57:56.298Z,8.17
2023-03-28T13:03:53.194Z,7.17
2023-03-28T13:09:16.977Z,11.30
2023-03-28T13:14:37.379Z,7.37
2023-03-28T13:19:42.174Z,7.13
2023-03-28T13:24:44.087Z,9.60
2023-03-28T13:29:53.089Z,7.50
2023-03-28T13:34:59.950Z,6.57
2023-03-28T13:40:01.721Z,5.20
2023-03-28T13:45:06.660Z,3.67
2023-03-28T13:50:29.807Z,4.67
2023-03-28T13:55:32.223Z,4.77
2023-03-28T14:00:34.263Z,8.90
2023-03-28T14:05:46.717Z,7.73
2023-03-28T14:10:51.040Z,4.93
2023-03-28T14:15:53.680Z,4.70
2023-03-28T14:21:01.817Z,6.77
2023-03-28T14:26:12.405Z,4.70
2023-03-28T14:31:38.588Z,5.37
2023-03-28T14:37:00.958Z,4.80
2023-03-28T14:42:15.812Z,4.03
2023-03-28T14:47:26.939Z,7.75
2023-03-28T14:52:31.524Z,7.80
2023-03-28T14:57:37.698Z,3.40
2023-03-28T15:02:42.770Z,4.18
2023-03-28T15:07:47.265Z,5.67
2023-03-28T15:12:59.583Z,5.50
2023-03-28T15:18:06.748Z,6.40
2023-03-28T15:23:15.580Z,4.53
2023-03-28T15:28:20.001Z,5.63
2023-03-28T15:33:29.228Z,7.65
2023-03-28T15:38:41.105Z,5.57
2023-03-28T15:43:55.546Z,5.10
2023-03-28T15:49:00.842Z,5.83
2023-03-28T15:54:03.411Z,4.73
2023-03-28T15:59:18.490Z,5.30
2023-03-28T16:04:29.176Z,7.20
2023-03-28T16:09:32.027Z,7.57
2023-03-28T16:14:35.804Z,4.33
2023-03-28T16:20:16.377Z,2.73
2023-03-28T16:25:18.489Z,7.13
2023-03-28T16:30:31.547Z,4.60
2023-03-28T16:35:35.975Z,6.07
2023-03-28T16:40:43.055Z,8.50
2023-03-28T16:45:49.574Z,5.40
2023-03-28T16:50:58.623Z,9.00
2023-03-28T16:56:03.956Z,8.03
2023-03-28T17:01:19.545Z,4.77
2023-03-28T17:06:22.708Z,9.33
2023-03-28T17:11:30.823Z,8.73
2023-03-28T17:16:32.987Z,5.63
2023-03-28T17:21:35.166Z,7.80
2023-03-28T17:26:37.286Z,7.90
2023-03-28T17:31:43.886Z,8.57
2023-03-28T17:36:46.128Z,9.40
2023-03-28T17:41:48.576Z,7.50
2023-03-28T17:46:50.552Z,14.10
2023-03-28T17:51:56.845Z,7.97
2023-03-28T17:56:59.628Z,9.13
2023-03-28T18:02:03.009Z,8.10
2023-03-28T18:07:16.225Z,7.50
2023-03-28T18:12:22.358Z,11.27
2023-03-28T18:17:26.504Z,20.43
2023-03-28T18:22:29.193Z,5.80
2023-03-28T18:27:33.424Z,11.07
2023-03-28T18:32:38.031Z,6.93
2023-03-28T18:37:42.254Z,11.03
2023-03-28T18:42:44.646Z,12.33
2023-03-28T18:47:49.147Z,6.07
2023-03-28T18:52:53.526Z,8.30
2023-03-28T18:57:56.038Z,8.33
2023-03-28T19:02:58.018Z,5.50
2023-03-28T19:07:59.998Z,9.07
2023-03-28T19:13:01.916Z,7.97
2023-03-28T19:18:05.624Z,5.17
2023-03-28T19:23:10.333Z,6.90
2023-03-28T19:28:12.724Z,11.07
2023-03-28T19:33:14.920Z,8.27
2023-03-28T19:38:17.285Z,11.33
2023-03-28T19:43:24.009Z,7.17
2023-03-28T19:48:31.233Z,8.90
2023-03-28T19:53:33.439Z,10.63
2023-03-28T19:58:45.444Z,6.40
2023-03-28T20:03:52.585Z,7.67
2023-03-28T20:08:56.224Z,10.57
2023-03-28T20:14:03.362Z,7.83
2023-03-28T20:19:14.292Z,5.53
2023-03-28T20:24:18.448Z,9.10
2023-03-28T20:29:20.754Z,6.33
2023-03-28T20:34:27.746Z,10.97
2023-03-28T20:39:35.198Z,10.57
2023-03-28T20:44:39.940Z,7.37
2023-03-28T20:49:46.103Z,7.17
2023-03-28T20:54:49.969Z,9.23
2023-03-28T20:59:55.302Z,8.97
2023-03-28T21:04:59.712Z,9.67
2023-03-28T21:10:02.092Z,11.50
2023-03-28T21:15:06.757Z,14.30
2023-03-28T21:20:13.728Z,15.37
2023-03-28T21:25:15.974Z,15.80
2023-03-28T21:30:20.155Z,11.77
2023-03-28T21:35:24.273Z,15.00
2023-03-28T21:40:30.358Z,10.80
2023-03-28T21:45:35.118Z,12.90
2023-03-28T21:50:38.776Z,11.37
2023-03-28T21:55:41.057Z,12.60
2023-03-28T22:00:42.831Z,11.77
2023-03-28T22:05:46.761Z,13.73
2023-03-28T22:10:55.341Z,13.90
2023-03-28T22:15:59.836Z,12.97
2023-03-28T22:21:07.283Z,13.73
2023-03-28T22:26:11.075Z,14.00
2023-03-28T22:31:17.650Z,17.20
2023-03-28T22:36:21.960Z,15.37
2023-03-28T22:41:32.038Z,15.23
2023-03-28T22:46:40.723Z,16.00
2023-03-28T22:51:48.886Z,12.03
2023-03-28T22:56:50.642Z,16.33
2023-03-28T23:01:55.281Z,12.93
2023-03-28T23:07:01.727Z,10.40
2023-03-28T23:12:04.091Z,14.20
2023-03-28T23:17:05.753Z,13.93
2023-03-28T23:22:10.277Z,13.57
2023-03-28T23:27:26.648Z,14.00
2023-03-28T23:32:31.012Z,11.83
2023-03-28T23:37:34.527Z,15.63
2023-03-28T23:42:38.752Z,11.40
2023-03-28T23:47:44.034Z,15.07
2023-03-28T23:52:45.826Z,17.40
2023-03-28T23:57:49.958Z,17.67
